createdAt,value
2017-11-13T00:00:04.184Z,99682.73
2017-11-13T00:02:31.648Z,99675.44
2017-11-13T00:04:59.159Z,99674.39
2017-11-13T00:07:26.664Z,99681.32
2017-11-13T00:09:54.119Z,99679.13
2017-11-13T00:12:21.682Z,99676.95
2017-11-13T00:14:49.139Z,99676.53
2017-11-13T00:17:16.625Z,99678.91
2017-11-13T00:19:44.095Z,99682.42
2017-11-13T00:22:11.570Z,99685.14
2017-11-13T00:24:39.030Z,99685.46
2017-11-13T00:27:06.511Z,99688.70
2017-11-13T00:29:33.969Z,99690.32
2017-11-13T00:32:01.442Z,99691.66
2017-11-13T00:34:28.928Z,99691.19
2017-11-13T00:36:56.405Z,99694.73
2017-11-13T00:39:23.870Z,99692.59
2017-11-13T00:41:51.374Z,99688.59
2017-11-13T00:44:18.838Z,99693.51
2017-11-13T00:46:46.315Z,99698.38
2017-11-13T00:49:13.788Z,99704.44
2017-11-13T00:51:41.262Z,99700.13
2017-11-13T00:54:08.750Z,99698.31
2017-11-13T00:56:36.218Z,99704.52
2017-11-13T00:59:03.770Z,99704.37
2017-11-13T01:01:31.235Z,99706.58
2017-11-13T01:03:58.720Z,99711.40
2017-11-13T01:06:26.164Z,99710.53
2017-11-13T01:08:53.654Z,99711.66
2017-11-13T01:11:21.102Z,99714.55
2017-11-13T01:13:48.556Z,99714.50
2017-11-13T01:16:15.997Z,99730.38
2017-11-13T01:18:43.450Z,99735.09
2017-11-13T01:21:10.899Z,99739.61
2017-11-13T01:23:38.412Z,99743.91
2017-11-13T01:26:05.868Z,99753.55
2017-11-13T01:28:33.337Z,99752.16
2017-11-13T01:31:00.780Z,99758.27
2017-11-13T01:33:28.262Z,99755.15
2017-11-13T01:35:55.718Z,99759.17
2017-11-13T01:38:23.157Z,99761.77
2017-11-13T01:40:50.644Z,99764.45
2017-11-13T01:43:18.076Z,99762.55
2017-11-13T01:45:45.545Z,99764.38
2017-11-13T01:48:13.016Z,99764.62
2017-11-13T01:50:40.492Z,99769.00
2017-11-13T01:53:07.930Z,99771.04
2017-11-13T01:55:35.401Z,99775.29
2017-11-13T01:58:02.858Z,99770.06
2017-11-13T02:00:30.312Z,99776.25
2017-11-13T02:02:57.765Z,99774.80
2017-11-13T02:05:25.252Z,99773.39
2017-11-13T02:07:52.686Z,99777.20
2017-11-13T02:10:20.139Z,99786.53
2017-11-13T02:12:47.619Z,99784.62
2017-11-13T02:15:15.064Z,99780.95
2017-11-13T02:17:42.526Z,99791.23
2017-11-13T02:20:09.955Z,99797.09
2017-11-13T02:22:37.410Z,99803.20
2017-11-13T02:25:04.865Z,99804.54
2017-11-13T02:27:32.323Z,99815.14
2017-11-13T02:29:59.768Z,99820.23
2017-11-13T02:32:27.222Z,99817.77
2017-11-13T02:34:54.765Z,99828.25
2017-11-13T02:37:22.323Z,99837.56
2017-11-13T02:39:49.760Z,99836.66
2017-11-13T02:42:17.332Z,99845.06
2017-11-13T02:44:44.776Z,99850.73
2017-11-13T02:47:12.241Z,99850.44
2017-11-13T02:49:39.671Z,99855.83
2017-11-13T02:52:07.157Z,99853.08
2017-11-13T02:54:34.631Z,99858.77
2017-11-13T02:57:02.058Z,99866.31
2017-11-13T02:59:29.524Z,99866.78
2017-11-13T03:01:56.965Z,99865.32
2017-11-13T03:04:24.451Z,99873.20
2017-11-13T03:06:51.898Z,99866.89
2017-11-13T03:09:19.382Z,99862.98
2017-11-13T03:11:46.822Z,99862.02
2017-11-13T03:14:14.279Z,99872.90
2017-11-13T03:16:41.707Z,99870.50
2017-11-13T03:19:09.160Z,99876.05
2017-11-13T03:21:36.591Z,99881.45
2017-11-13T03:24:04.053Z,99887.14
2017-11-13T03:26:31.488Z,99893.91
2017-11-13T03:28:59.005Z,99896.57
2017-11-13T03:31:26.448Z,99907.38
2017-11-13T03:33:53.904Z,99908.41
2017-11-13T03:36:21.330Z,99913.95
2017-11-13T03:38:48.816Z,99922.55
2017-11-13T03:41:16.247Z,99924.39
2017-11-13T03:43:43.709Z,99922.70
2017-11-13T03:46:11.167Z,99929.28
2017-11-13T03:48:38.608Z,99937.84
2017-11-13T03:51:06.077Z,99938.69
2017-11-13T03:53:33.532Z,99944.84
2017-11-13T03:56:01.014Z,99947.02
2017-11-13T03:58:28.445Z,99946.05
2017-11-13T04:00:55.912Z,99947.89
2017-11-13T04:03:23.347Z,99954.89
2017-11-13T04:05:50.934Z,99964.49
2017-11-13T04:08:18.368Z,99960.05
2017-11-13T04:10:45.869Z,99968.28
2017-11-13T04:13:13.343Z,99962.17
2017-11-13T04:15:40.815Z,99968.89
2017-11-13T04:18:08.264Z,99979.42
2017-11-13T04:20:35.767Z,99984.56
2017-11-13T04:23:03.222Z,99994.78
2017-11-13T04:25:30.709Z,99993.80
2017-11-13T04:27:58.181Z,100000.86
2017-11-13T04:30:25.636Z,100005.28
2017-11-13T04:32:53.116Z,100010.15
2017-11-13T04:35:20.559Z,100013.59
2017-11-13T04:37:48.080Z,100017.48
2017-11-13T04:40:15.530Z,100027.50
2017-11-13T04:42:42.992Z,100027.23
2017-11-13T04:45:10.464Z,100028.77
2017-11-13T04:47:38.109Z,100029.53
2017-11-13T04:50:05.568Z,100030.05
2017-11-13T04:52:33.096Z,100031.23
2017-11-13T04:55:00.556Z,100027.20
2017-11-13T04:57:28.008Z,100030.02
2017-11-13T04:59:55.472Z,100027.59
2017-11-13T05:02:22.953Z,100028.62
2017-11-13T05:04:50.444Z,100034.34
2017-11-13T05:07:17.895Z,100035.80
2017-11-13T05:09:45.376Z,100039.03
2017-11-13T05:12:13.205Z,100036.09
2017-11-13T05:14:40.668Z,100042.46
2017-11-13T05:17:08.120Z,100043.09
2017-11-13T05:19:35.589Z,100040.42
2017-11-13T05:22:03.147Z,100037.23
2017-11-13T05:24:30.646Z,100050.34
2017-11-13T05:26:58.092Z,100041.55
2017-11-13T05:29:25.577Z,100049.00
2017-11-13T05:31:53.027Z,100054.14
2017-11-13T05:34:20.475Z,100059.73
2017-11-13T05:36:47.980Z,100065.62
2017-11-13T05:39:15.436Z,100063.86
2017-11-13T05:41:42.916Z,100073.31
2017-11-13T05:44:10.429Z,100072.03
2017-11-13T05:46:37.892Z,100073.45
2017-11-13T05:49:05.417Z,100074.08
2017-11-13T05:51:32.895Z,100075.31
2017-11-13T05:54:00.376Z,100076.11
2017-11-13T05:56:27.943Z,100081.56
2017-11-13T05:58:55.391Z,100081.69
2017-11-13T06:01:22.867Z,100089.95
2017-11-13T06:03:53.484Z,100097.45
2017-11-13T06:06:20.976Z,100099.95
2017-11-13T06:08:48.455Z,100113.56
2017-11-13T06:11:15.946Z,100121.64
2017-11-13T06:13:43.510Z,100122.06
2017-11-13T06:16:10.968Z,100128.13
2017-11-13T06:18:38.445Z,100146.31
2017-11-13T06:21:05.896Z,100142.73
2017-11-13T06:23:33.386Z,100147.58
2017-11-13T06:26:00.841Z,100155.25
2017-11-13T06:28:28.312Z,100164.03
2017-11-13T06:30:55.761Z,100167.21
2017-11-13T06:33:23.292Z,100176.36
2017-11-13T06:35:50.739Z,100183.52
2017-11-13T06:38:18.222Z,100184.81
2017-11-13T06:40:45.658Z,100189.33
2017-11-13T06:43:13.149Z,100184.19
2017-11-13T06:45:40.657Z,100184.05
2017-11-13T06:48:08.220Z,100188.16
2017-11-13T06:50:35.731Z,100192.44
2017-11-13T06:53:03.185Z,100194.58
2017-11-13T06:55:30.675Z,100199.47
2017-11-13T06:57:58.141Z,100202.11
2017-11-13T07:00:25.626Z,100213.06
2017-11-13T07:02:53.071Z,100202.33
2017-11-13T07:05:20.556Z,100207.20
2017-11-13T07:07:48.013Z,100216.74
2017-11-13T07:10:15.483Z,100214.55
2017-11-13T07:12:42.939Z,100211.88
2017-11-13T07:15:10.499Z,100226.94
2017-11-13T07:17:37.947Z,100225.73
2017-11-13T07:20:05.413Z,100231.20
2017-11-13T07:22:32.877Z,100239.17
2017-11-13T07:25:00.322Z,100239.73
2017-11-13T07:27:27.801Z,100245.09
2017-11-13T07:29:55.252Z,100256.69
2017-11-13T07:32:22.719Z,100256.27
2017-11-13T07:34:50.159Z,100264.95
2017-11-13T07:37:17.649Z,100263.13
2017-11-13T07:39:45.107Z,100265.95
2017-11-13T07:42:12.583Z,100262.11
2017-11-13T07:44:40.242Z,100269.03
2017-11-13T07:47:07.757Z,100265.88
2017-11-13T07:49:35.201Z,100272.21
2017-11-13T07:52:02.667Z,100268.09
2017-11-13T07:54:30.127Z,100282.17
2017-11-13T07:56:57.627Z,100284.76
2017-11-13T07:59:25.080Z,100288.05
2017-11-13T08:01:52.558Z,100286.70
2017-11-13T08:04:20.016Z,100291.72
2017-11-13T08:06:47.489Z,100291.52
2017-11-13T08:09:14.945Z,100292.02
2017-11-13T08:11:42.567Z,100289.06
2017-11-13T08:14:10.120Z,100285.94
2017-11-13T08:16:37.557Z,100295.30
2017-11-13T08:19:05.035Z,100288.02
2017-11-13T08:21:32.490Z,100299.52
2017-11-13T08:23:59.966Z,100293.66
2017-11-13T08:26:27.422Z,100312.09
2017-11-13T08:28:54.901Z,100309.52
2017-11-13T08:31:22.343Z,100314.63
2017-11-13T08:33:49.812Z,100313.30
2017-11-13T08:36:17.261Z,100328.66
2017-11-13T08:38:44.770Z,100324.52
2017-11-13T08:41:12.207Z,100340.03
2017-11-13T08:43:39.673Z,100333.97
2017-11-13T08:46:07.142Z,100346.22
2017-11-13T08:48:34.579Z,100350.06
2017-11-13T08:51:02.168Z,100359.45
2017-11-13T08:53:29.620Z,100358.83
2017-11-13T08:55:57.089Z,100350.91
2017-11-13T08:58:24.534Z,100361.00
2017-11-13T09:00:52.011Z,100354.99
2017-11-13T09:03:19.450Z,100358.03
2017-11-13T09:05:47.017Z,100357.42
2017-11-13T09:08:14.454Z,100361.83
2017-11-13T09:10:41.916Z,100353.73
2017-11-13T09:13:09.373Z,100361.08
2017-11-13T09:15:36.872Z,100358.08
2017-11-13T09:18:04.386Z,100366.17
2017-11-13T09:20:31.946Z,100373.72
2017-11-13T09:22:59.427Z,100373.42
2017-11-13T09:25:26.866Z,100381.29
2017-11-13T09:27:54.332Z,100386.98
2017-11-13T09:30:21.872Z,100393.88
2017-11-13T09:32:49.332Z,100403.80
2017-11-13T09:35:16.778Z,100408.59
2017-11-13T09:37:44.243Z,100408.00
2017-11-13T09:40:11.707Z,100413.14
2017-11-13T09:42:39.263Z,100427.16
2017-11-13T09:45:06.709Z,100424.05
2017-11-13T09:47:34.215Z,100428.00
2017-11-13T09:50:01.662Z,100429.41
2017-11-13T09:52:29.123Z,100429.23
2017-11-13T09:54:56.600Z,100427.59
2017-11-13T09:57:24.082Z,100433.66
2017-11-13T09:59:51.549Z,100442.09
2017-11-13T10:02:18.983Z,100453.06
2017-11-13T10:04:46.449Z,100443.41
2017-11-13T10:07:13.905Z,100448.95
2017-11-13T10:09:41.380Z,100453.70
2017-11-13T10:12:08.847Z,100452.92
2017-11-13T10:14:36.317Z,100451.04
2017-11-13T10:17:03.787Z,100455.42
2017-11-13T10:19:31.251Z,100455.20
2017-11-13T10:21:58.758Z,100454.48
2017-11-13T10:24:26.241Z,100462.49
2017-11-13T10:26:53.683Z,100469.62
2017-11-13T10:29:21.126Z,100470.83
2017-11-13T10:31:48.599Z,100472.18
2017-11-13T10:34:16.056Z,100470.46
2017-11-13T10:36:43.525Z,100480.30
2017-11-13T10:39:10.974Z,100481.54
2017-11-13T10:41:38.436Z,100481.92
2017-11-13T10:44:05.879Z,100491.03
2017-11-13T10:46:33.462Z,100482.27
2017-11-13T10:49:00.916Z,100483.09
2017-11-13T10:51:28.419Z,100474.64
2017-11-13T10:53:55.856Z,100477.83
2017-11-13T10:56:23.312Z,100477.41
2017-11-13T10:58:50.786Z,100471.50
2017-11-13T11:01:18.223Z,100476.14
2017-11-13T11:03:45.701Z,100472.84
2017-11-13T11:06:13.146Z,100476.17
2017-11-13T11:08:40.598Z,100480.16
2017-11-13T11:11:08.058Z,100478.06
2017-11-13T11:13:38.063Z,100483.69
2017-11-13T11:16:11.120Z,100482.86
2017-11-13T11:21:45.872Z,100483.45
2017-11-13T11:24:13.335Z,100487.91
2017-11-13T11:26:46.256Z,100482.42
2017-11-13T11:29:16.164Z,100489.98
2017-11-13T11:31:49.311Z,100481.19
2017-11-13T11:34:22.493Z,100482.58
2017-11-13T11:36:52.392Z,100489.09
2017-11-13T11:39:19.854Z,100493.52
2017-11-13T11:41:47.297Z,100489.83
2017-11-13T11:44:29.655Z,100494.87
2017-11-13T11:46:57.091Z,100495.95
2017-11-13T11:49:34.471Z,100501.53
2017-11-13T11:52:01.911Z,100501.05
2017-11-13T11:54:29.377Z,100502.61
2017-11-13T11:57:02.311Z,100501.84
2017-11-13T11:59:29.776Z,100504.13
2017-11-13T12:01:57.223Z,100507.97
2017-11-13T12:04:24.731Z,100509.98
2017-11-13T12:06:52.188Z,100511.30
2017-11-13T12:09:19.649Z,100513.19
2017-11-13T12:11:47.086Z,100511.87
2017-11-13T12:14:14.659Z,100510.34
2017-11-13T12:16:42.099Z,100505.45
2017-11-13T12:19:09.640Z,100506.22
2017-11-13T12:21:37.093Z,100512.06
2017-11-13T12:24:04.547Z,100505.88
2017-11-13T12:26:32.022Z,100502.80
2017-11-13T12:28:59.497Z,100499.98
2017-11-13T12:31:27.837Z,100508.34
2017-11-13T12:33:55.314Z,100511.79
2017-11-13T12:36:22.792Z,100508.52
2017-11-13T12:38:50.235Z,100512.59
2017-11-13T12:41:17.801Z,100523.80
2017-11-13T12:43:45.256Z,100528.09
2017-11-13T12:46:12.717Z,100523.95
2017-11-13T12:48:40.170Z,100529.59
2017-11-13T12:51:07.646Z,100528.22
2017-11-13T12:53:35.103Z,100529.84
2017-11-13T12:56:02.641Z,100529.75
2017-11-13T12:58:30.200Z,100527.71
2017-11-13T13:00:57.653Z,100532.06
2017-11-13T13:03:25.130Z,100527.66
2017-11-13T13:05:52.595Z,100532.94
2017-11-13T13:08:20.083Z,100529.13
2017-11-13T13:10:47.549Z,100521.30
2017-11-13T13:13:15.059Z,100531.41
2017-11-13T13:15:42.539Z,100536.02
2017-11-13T13:18:10.052Z,100535.44
2017-11-13T13:20:37.514Z,100541.18
2017-11-13T13:23:05.002Z,100547.88
2017-11-13T13:25:32.442Z,100548.98
2017-11-13T13:27:59.884Z,100546.34
2017-11-13T13:30:27.357Z,100551.55
2017-11-13T13:32:54.789Z,100552.50
2017-11-13T13:35:22.253Z,100552.84
2017-11-13T13:37:49.695Z,100562.52
2017-11-13T13:40:17.170Z,100566.55
2017-11-13T13:42:44.724Z,100566.37
2017-11-13T13:45:12.276Z,100564.50
2017-11-13T13:47:39.727Z,100566.81
2017-11-13T13:50:07.276Z,100563.09
2017-11-13T13:52:34.790Z,100576.73
2017-11-13T13:55:02.338Z,100575.59
2017-11-13T13:57:29.800Z,100576.37
2017-11-13T13:59:57.310Z,100578.17
2017-11-13T14:02:24.790Z,100583.91
2017-11-13T14:04:52.342Z,100574.22
2017-11-13T14:07:19.810Z,100583.29
2017-11-13T14:09:47.304Z,100591.56
2017-11-13T14:12:14.781Z,100592.36
2017-11-13T14:14:42.221Z,100597.80
2017-11-13T14:17:09.715Z,100602.80
2017-11-13T14:19:37.158Z,100606.75
2017-11-13T14:22:04.612Z,100615.23
2017-11-13T14:24:32.063Z,100609.45
2017-11-13T14:26:59.542Z,100618.44
2017-11-13T14:29:26.996Z,100614.39
2017-11-13T14:31:54.477Z,100613.13
2017-11-13T14:34:21.936Z,100614.81
2017-11-13T14:36:49.437Z,100617.66
2017-11-13T14:39:16.931Z,100618.86
2017-11-13T14:41:44.382Z,100625.81
2017-11-13T14:44:11.955Z,100626.75
2017-11-13T14:46:39.417Z,100633.58
2017-11-13T14:49:06.891Z,100631.84
2017-11-13T14:51:34.346Z,100641.83
2017-11-13T14:54:01.866Z,100641.02
2017-11-13T14:56:29.310Z,100653.08
2017-11-13T14:58:56.804Z,100652.38
2017-11-13T15:01:24.246Z,100658.20
2017-11-13T15:03:51.698Z,100666.17
2017-11-13T15:06:19.144Z,100667.44
2017-11-13T15:08:46.626Z,100669.61
2017-11-13T15:11:14.091Z,100669.01
2017-11-13T15:13:41.539Z,100669.48
2017-11-13T15:16:09.020Z,100674.98
2017-11-13T15:18:36.467Z,100679.09
2017-11-13T15:21:04.016Z,100682.95
2017-11-13T15:23:31.475Z,100679.09
2017-11-13T15:25:58.980Z,100681.17
2017-11-13T15:28:26.545Z,100680.00
2017-11-13T15:30:54.044Z,100692.40
2017-11-13T15:33:21.490Z,100689.45
2017-11-13T15:35:48.959Z,100696.62
2017-11-13T15:38:16.438Z,100690.81
2017-11-13T15:40:43.912Z,100694.75
2017-11-13T15:43:11.356Z,100705.59
2017-11-13T15:45:38.875Z,100702.48
2017-11-13T15:48:06.469Z,100698.09
2017-11-13T15:50:33.937Z,100698.30
2017-11-13T15:53:01.476Z,100709.41
2017-11-13T15:55:28.971Z,100719.53
2017-11-13T15:57:56.414Z,100722.07
2017-11-13T16:00:23.863Z,100726.30
2017-11-13T16:02:51.953Z,100728.33
2017-11-13T16:05:19.438Z,100739.98
2017-11-13T16:07:47.020Z,100737.25
2017-11-13T16:10:14.578Z,100738.68
2017-11-13T16:12:42.045Z,100749.80
2017-11-13T16:15:09.482Z,100750.39
2017-11-13T16:17:36.969Z,100754.64
2017-11-13T16:20:04.414Z,100760.38
2017-11-13T16:22:31.960Z,100763.30
2017-11-13T16:24:59.416Z,100761.82
2017-11-13T16:27:26.880Z,100760.66
2017-11-13T16:29:54.572Z,100769.16
2017-11-13T16:32:22.042Z,100778.82
2017-11-13T16:34:49.478Z,100779.70
2017-11-13T16:37:16.953Z,100781.59
2017-11-13T16:39:44.433Z,100789.17
2017-11-13T16:42:12.008Z,100786.09
2017-11-13T16:44:39.451Z,100789.13
2017-11-13T16:47:06.911Z,100797.98
2017-11-13T16:49:34.479Z,100808.61
2017-11-13T16:52:01.932Z,100813.05
2017-11-13T16:54:29.395Z,100815.70
2017-11-13T16:56:56.840Z,100821.00
2017-11-13T16:59:24.425Z,100825.42
2017-11-13T17:01:51.974Z,100829.84
2017-11-13T17:04:19.541Z,100837.34
2017-11-13T17:06:47.016Z,100841.73
2017-11-13T17:09:14.480Z,100844.80
2017-11-13T17:11:42.005Z,100849.17
2017-11-13T17:14:09.472Z,100858.02
2017-11-13T17:16:36.993Z,100852.73
2017-11-13T17:21:45.407Z,100870.75
2017-11-13T17:24:12.855Z,100868.58
2017-11-13T17:26:40.324Z,100872.49
2017-11-13T17:29:07.769Z,100871.59
2017-11-13T17:31:35.223Z,100873.38
2017-11-13T17:34:02.671Z,100877.33
2017-11-13T17:36:30.161Z,100872.47
2017-11-13T17:38:57.648Z,100882.98
2017-11-13T17:41:25.200Z,100881.20
2017-11-13T17:43:52.651Z,100884.71
2017-11-13T17:46:20.117Z,100889.03
2017-11-13T17:48:47.564Z,100886.39
2017-11-13T17:51:15.030Z,100891.64
2017-11-13T17:53:42.471Z,100891.20
2017-11-13T17:56:09.945Z,100888.53
2017-11-13T17:58:37.385Z,100888.14
2017-11-13T18:01:04.842Z,100897.70
2017-11-13T18:03:32.304Z,100903.24
2017-11-13T18:05:59.774Z,100915.16
2017-11-13T18:08:27.248Z,100918.65
2017-11-13T18:10:54.952Z,100918.17
2017-11-13T18:13:22.429Z,100922.38
2017-11-13T18:15:49.906Z,100926.73
2017-11-13T18:18:17.377Z,100920.95
2017-11-13T18:20:44.892Z,100924.09
2017-11-13T18:23:12.342Z,100919.69
2017-11-13T18:25:39.795Z,100923.98
2017-11-13T18:28:07.265Z,100925.63
2017-11-13T18:30:34.708Z,100923.39
2017-11-13T18:33:02.306Z,100929.46
2017-11-13T18:35:29.743Z,100929.78
2017-11-13T18:37:57.201Z,100938.50
2017-11-13T18:40:24.671Z,100935.73
2017-11-13T18:42:52.139Z,100943.38
2017-11-13T18:45:19.598Z,100945.79
2017-11-13T18:47:47.147Z,100954.81
2017-11-13T18:50:14.633Z,100963.45
2017-11-13T18:52:42.088Z,100958.20
2017-11-13T18:55:09.563Z,100966.99
2017-11-13T19:00:10.860Z,100966.52
2017-11-13T19:02:38.324Z,100963.30
2017-11-13T19:05:05.919Z,100962.87
2017-11-13T19:07:33.351Z,100971.16
2017-11-13T19:10:00.899Z,100974.91
2017-11-13T19:12:28.368Z,100973.66
2017-11-13T19:14:55.828Z,100972.29
2017-11-13T19:17:23.291Z,100975.63
2017-11-13T19:19:50.731Z,100980.61
2017-11-13T19:22:18.227Z,100981.25
2017-11-13T19:24:45.701Z,100986.55
2017-11-13T19:27:13.152Z,100988.80
2017-11-13T19:29:40.588Z,100996.98
2017-11-13T19:32:08.149Z,100999.31
2017-11-13T19:34:35.605Z,100995.55
2017-11-13T19:37:03.103Z,100993.33
2017-11-13T19:39:30.578Z,100990.01
2017-11-13T19:41:58.023Z,100999.02
2017-11-13T19:44:25.463Z,100998.22
2017-11-13T19:46:52.949Z,100997.47
2017-11-13T19:49:20.408Z,101004.94
2017-11-13T19:51:47.851Z,101005.30
2017-11-13T19:54:15.306Z,101012.09
2017-11-13T19:56:42.756Z,101007.31
2017-11-13T19:59:10.224Z,101015.69
2017-11-13T20:01:37.688Z,101022.92
2017-11-13T20:04:05.172Z,101020.10
2017-11-13T20:06:32.629Z,101029.20
2017-11-13T20:09:00.107Z,101022.93
2017-11-13T20:11:27.555Z,101030.52
2017-11-13T20:13:55.066Z,101026.56
2017-11-13T20:16:22.510Z,101029.16
2017-11-13T20:18:49.969Z,101025.80
2017-11-13T20:21:17.459Z,101022.34
2017-11-13T20:23:44.939Z,101018.45
2017-11-13T20:26:12.404Z,101014.11
2017-11-13T20:28:39.876Z,101022.83
2017-11-13T20:31:07.343Z,101022.42
2017-11-13T20:33:34.798Z,101025.45
2017-11-13T20:36:02.279Z,101027.77
2017-11-13T20:38:29.722Z,101034.76
2017-11-13T20:40:57.182Z,101039.42
2017-11-13T20:43:24.624Z,101038.94
2017-11-13T20:45:52.096Z,101043.24
2017-11-13T20:48:19.564Z,101046.99
2017-11-13T20:50:47.039Z,101052.31
2017-11-13T20:53:14.487Z,101051.98
2017-11-13T20:55:41.959Z,101056.65
2017-11-13T20:58:09.405Z,101051.88
2017-11-13T21:00:36.880Z,101055.04
2017-11-13T21:03:04.338Z,101057.77
2017-11-13T21:05:31.803Z,101053.19
2017-11-13T21:07:59.259Z,101052.79
2017-11-13T21:10:26.716Z,101059.18
2017-11-13T21:12:54.167Z,101061.88
2017-11-13T21:15:21.685Z,101060.90
2017-11-13T21:17:49.157Z,101062.59
2017-11-13T21:20:16.590Z,101061.09
2017-11-13T21:22:44.163Z,101067.68
2017-11-13T21:25:11.640Z,101066.70
2017-11-13T21:27:39.108Z,101071.52
2017-11-13T21:30:06.548Z,101081.91
2017-11-13T21:32:34.015Z,101079.73
2017-11-13T21:35:01.546Z,101074.80
2017-11-13T21:37:29.112Z,101080.93
2017-11-13T21:39:56.563Z,101078.99
2017-11-13T21:42:24.048Z,101076.39
2017-11-13T21:44:51.510Z,101069.01
2017-11-13T21:47:18.954Z,101083.38
2017-11-13T21:49:46.426Z,101082.98
2017-11-13T21:52:13.883Z,101086.75
2017-11-13T21:54:41.346Z,101084.01
2017-11-13T21:57:08.787Z,101092.25
2017-11-13T21:59:36.255Z,101096.20
2017-11-13T22:02:03.704Z,101091.36
2017-11-13T22:04:31.185Z,101091.11
2017-11-13T22:06:58.626Z,101095.65
2017-11-13T22:09:26.104Z,101090.86
2017-11-13T22:11:53.551Z,101098.04
2017-11-13T22:14:21.012Z,101091.98
2017-11-13T22:16:48.465Z,101096.36
2017-11-13T22:19:15.936Z,101094.37
2017-11-13T22:21:43.385Z,101089.09
2017-11-13T22:24:10.863Z,101089.92
2017-11-13T22:26:38.349Z,101085.55
2017-11-13T22:29:05.807Z,101090.25
2017-11-13T22:31:33.300Z,101090.64
2017-11-13T22:34:00.750Z,101094.31
2017-11-13T22:36:28.226Z,101102.84
2017-11-13T22:38:55.721Z,101101.61
2017-11-13T22:41:23.193Z,101102.47
2017-11-13T22:43:50.656Z,101101.45
2017-11-13T22:46:18.119Z,101107.97
2017-11-13T22:48:45.657Z,101109.77
2017-11-13T22:51:13.137Z,101111.45
2017-11-13T22:53:40.576Z,101114.16
2017-11-13T22:56:08.052Z,101116.64
2017-11-13T22:58:35.490Z,101110.59
2017-11-13T23:01:02.976Z,101118.60
2017-11-13T23:03:30.442Z,101124.14
2017-11-13T23:05:57.928Z,101127.47
2017-11-13T23:08:25.380Z,101129.58
2017-11-13T23:10:52.848Z,101125.92
2017-11-13T23:13:20.336Z,101129.56
2017-11-13T23:15:47.885Z,101124.21
2017-11-13T23:18:15.330Z,101125.03
2017-11-13T23:20:42.808Z,101129.59
2017-11-13T23:23:10.252Z,101132.54
2017-11-13T23:25:37.718Z,101132.59
2017-11-13T23:28:05.225Z,101135.95
2017-11-13T23:30:32.678Z,101135.11
2017-11-13T23:33:00.178Z,101138.08
2017-11-13T23:35:27.626Z,101138.99
2017-11-13T23:37:55.128Z,101146.45
2017-11-13T23:40:22.584Z,101133.66
2017-11-13T23:42:50.087Z,101137.91
2017-11-13T23:45:17.526Z,101144.63
2017-11-13T23:47:44.991Z,101148.84
2017-11-13T23:50:12.432Z,101146.45
2017-11-13T23:52:39.889Z,101160.27
2017-11-13T23:55:07.327Z,101153.15
2017-11-13T23:57:34.786Z,101157.12
